sensor_id;sensor_type;location;lat;lon;timestamp;pressure;altitude;pressure_sealevel;temperature;humidity
28510;BME280;15723;55.684;37.928;2023-01-01T00:01:55;99708.19;;;2.82;82.18
28510;BME280;15723;55.684;37.928;2023-01-01T00:04:21;99718.25;;;2.75;81.75
28510;BME280;15723;55.684;37.928;2023-01-01T00:06:47;99707.97;;;2.88;82.04
28510;BME280;15723;55.684;37.928;2023-01-01T00:09:14;99699.00;;;2.89;82.64
28510;BME280;15723;55.684;37.928;2023-01-01T00:11:58;99699.81;;;2.91;82.26
28510;BME280;15723;55.684;37.928;2023-01-01T00:14:25;99701.81;;;2.61;81.91
28510;BME280;15723;55.684;37.928;2023-01-01T00:16:53;99707.63;;;2.97;82.40
28510;BME280;15723;55.684;37.928;2023-01-01T00:19:20;99704.91;;;2.99;82.02
28510;BME280;15723;55.684;37.928;2023-01-01T00:21:47;99700.91;;;2.86;81.36
28510;BME280;15723;55.684;37.928;2023-01-01T00:24:13;99704.25;;;2.92;81.73
28510;BME280;15723;55.684;37.928;2023-01-01T00:26:39;99696.47;;;2.85;82.18
28510;BME280;15723;55.684;37.928;2023-01-01T00:29:05;99695.25;;;2.93;82.26
28510;BME280;15723;55.684;37.928;2023-01-01T00:31:31;99701.44;;;2.95;82.70
28510;BME280;15723;55.684;37.928;2023-01-01T00:33:57;99691.75;;;2.91;82.83
28510;BME280;15723;55.684;37.928;2023-01-01T00:36:26;99680.63;;;2.78;82.96
28510;BME280;15723;55.684;37.928;2023-01-01T00:38:52;99679.75;;;2.78;82.62
28510;BME280;15723;55.684;37.928;2023-01-01T00:41:19;99680.06;;;2.94;82.18
28510;BME280;15723;55.684;37.928;2023-01-01T00:43:45;99664.28;;;3.09;82.51
28510;BME280;15723;55.684;37.928;2023-01-01T00:46:12;99660.03;;;3.04;82.83
28510;BME280;15723;55.684;37.928;2023-01-01T00:48:39;99662.88;;;2.99;82.90
28510;BME280;15723;55.684;37.928;2023-01-01T00:51:06;99657.38;;;2.79;83.96
28510;BME280;15723;55.684;37.928;2023-01-01T00:53:32;99654.97;;;2.95;83.60
28510;BME280;15723;55.684;37.928;2023-01-01T00:55:58;99641.63;;;2.93;83.02
28510;BME280;15723;55.684;37.928;2023-01-01T00:58:25;99639.44;;;3.04;82.75
28510;BME280;15723;55.684;37.928;2023-01-01T01:00:52;99637.09;;;2.95;83.30
28510;BME280;15723;55.684;37.928;2023-01-01T01:03:18;99628.13;;;2.73;84.28
28510;BME280;15723;55.684;37.928;2023-01-01T01:08:32;99602.28;;;2.94;83.16
28510;BME280;15723;55.684;37.928;2023-01-01T01:11:19;99588.13;;;2.90;82.92
28510;BME280;15723;55.684;37.928;2023-01-01T01:13:47;99591.13;;;2.82;82.76
28510;BME280;15723;55.684;37.928;2023-01-01T01:16:20;99588.13;;;2.90;83.13
28510;BME280;15723;55.684;37.928;2023-01-01T01:18:49;99571.72;;;2.76;84.00
28510;BME280;15723;55.684;37.928;2023-01-01T01:21:18;99577.66;;;2.61;83.60
28510;BME280;15723;55.684;37.928;2023-01-01T01:24:03;99580.47;;;2.81;83.42
28510;BME280;15723;55.684;37.928;2023-01-01T01:26:31;99571.94;;;2.70;83.34
28510;BME280;15723;55.684;37.928;2023-01-01T01:28:58;99573.09;;;2.86;83.11
28510;BME280;15723;55.684;37.928;2023-01-01T01:31:28;99568.44;;;2.91;83.46
28510;BME280;15723;55.684;37.928;2023-01-01T01:33:55;99569.31;;;2.92;83.21
28510;BME280;15723;55.684;37.928;2023-01-01T01:36:22;99562.09;;;2.94;82.59
28510;BME280;15723;55.684;37.928;2023-01-01T01:38:53;99560.31;;;2.71;82.37
28510;BME280;15723;55.684;37.928;2023-01-01T01:41:21;99558.78;;;2.87;82.76
28510;BME280;15723;55.684;37.928;2023-01-01T01:46:32;99533.75;;;3.10;82.89
28510;BME280;15723;55.684;37.928;2023-01-01T01:49:04;99525.91;;;2.82;83.35
28510;BME280;15723;55.684;37.928;2023-01-01T01:51:37;99536.50;;;3.08;83.05
28510;BME280;15723;55.684;37.928;2023-01-01T01:54:11;99534.34;;;2.95;82.81
28510;BME280;15723;55.684;37.928;2023-01-01T01:56:50;99533.25;;;3.00;83.31
28510;BME280;15723;55.684;37.928;2023-01-01T01:59:17;99531.25;;;3.05;83.14
28510;BME280;15723;55.684;37.928;2023-01-01T02:01:45;99531.00;;;3.33;82.21
28510;BME280;15723;55.684;37.928;2023-01-01T02:04:12;99545.03;;;3.18;82.35
28510;BME280;15723;55.684;37.928;2023-01-01T02:06:39;99537.88;;;2.95;82.97
28510;BME280;15723;55.684;37.928;2023-01-01T02:09:07;99536.75;;;2.79;82.92
28510;BME280;15723;55.684;37.928;2023-01-01T02:11:34;99528.09;;;2.94;83.05
28510;BME280;15723;55.684;37.928;2023-01-01T02:14:01;99529.25;;;3.10;83.68
28510;BME280;15723;55.684;37.928;2023-01-01T02:16:48;99534.41;;;2.93;83.13
28510;BME280;15723;55.684;37.928;2023-01-01T02:22:28;99521.91;;;2.70;82.83
28510;BME280;15723;55.684;37.928;2023-01-01T02:28:05;99515.56;;;2.95;82.65
28510;BME280;15723;55.684;37.928;2023-01-01T02:30:35;99512.78;;;2.98;83.10
28510;BME280;15723;55.684;37.928;2023-01-01T02:33:11;99502.16;;;2.95;83.26
28510;BME280;15723;55.684;37.928;2023-01-01T02:35:44;99486.88;;;2.97;82.48
28510;BME280;15723;55.684;37.928;2023-01-01T02:38:29;99493.19;;;2.96;82.34
28510;BME280;15723;55.684;37.928;2023-01-01T02:41:08;99482.91;;;3.07;82.54
28510;BME280;15723;55.684;37.928;2023-01-01T02:43:37;99486.22;;;3.13;82.00
28510;BME280;15723;55.684;37.928;2023-01-01T02:46:07;99486.66;;;3.25;81.34
28510;BME280;15723;55.684;37.928;2023-01-01T02:51:34;99475.91;;;3.25;81.19
28510;BME280;15723;55.684;37.928;2023-01-01T03:00:11;99471.94;;;3.13;81.34
28510;BME280;15723;55.684;37.928;2023-01-01T03:05:55;99447.34;;;3.24;81.14
28510;BME280;15723;55.684;37.928;2023-01-01T03:11:24;99438.88;;;3.12;82.30
28510;BME280;15723;55.684;37.928;2023-01-01T03:16:25;99429.13;;;3.32;81.17
28510;BME280;15723;55.684;37.928;2023-01-01T03:19:16;99436.50;;;2.83;82.40
28510;BME280;15723;55.684;37.928;2023-01-01T03:22:00;99428.16;;;3.12;81.23
28510;BME280;15723;55.684;37.928;2023-01-01T03:25:07;99422.13;;;3.07;81.72
28510;BME280;15723;55.684;37.928;2023-01-01T03:27:53;99431.91;;;3.08;81.88
28510;BME280;15723;55.684;37.928;2023-01-01T03:30:22;99427.75;;;3.43;81.09
28510;BME280;15723;55.684;37.928;2023-01-01T03:32:58;99421.47;;;3.23;81.42
28510;BME280;15723;55.684;37.928;2023-01-01T03:35:42;99416.22;;;3.20;80.94
28510;BME280;15723;55.684;37.928;2023-01-01T03:38:20;99417.44;;;3.33;81.03
28510;BME280;15723;55.684;37.928;2023-01-01T03:40:51;99394.66;;;3.43;80.74
28510;BME280;15723;55.684;37.928;2023-01-01T03:43:40;99390.34;;;2.98;81.89
28510;BME280;15723;55.684;37.928;2023-01-01T03:46:08;99388.22;;;3.47;81.04
28510;BME280;15723;55.684;37.928;2023-01-01T03:48:35;99373.06;;;3.26;81.05
28510;BME280;15723;55.684;37.928;2023-01-01T03:54:52;99359.56;;;3.07;82.16
28510;BME280;15723;55.684;37.928;2023-01-01T04:00:13;99346.31;;;3.44;81.21
28510;BME280;15723;55.684;37.928;2023-01-01T04:02:58;99335.50;;;3.26;81.77
28510;BME280;15723;55.684;37.928;2023-01-01T04:05:26;99329.06;;;3.30;81.62
28510;BME280;15723;55.684;37.928;2023-01-01T04:07:53;99342.47;;;3.09;82.13
28510;BME280;15723;55.684;37.928;2023-01-01T04:10:22;99340.66;;;3.30;82.04
28510;BME280;15723;55.684;37.928;2023-01-01T04:13:08;99339.47;;;3.37;81.32
28510;BME280;15723;55.684;37.928;2023-01-01T04:15:35;99345.88;;;3.33;81.35
28510;BME280;15723;55.684;37.928;2023-01-01T04:18:01;99348.47;;;3.36;80.93
28510;BME280;15723;55.684;37.928;2023-01-01T04:20:27;99341.88;;;3.43;81.06
28510;BME280;15723;55.684;37.928;2023-01-01T04:22:57;99338.44;;;2.99;82.48
28510;BME280;15723;55.684;37.928;2023-01-01T04:25:25;99340.59;;;3.11;82.00
28510;BME280;15723;55.684;37.928;2023-01-01T04:27:51;99341.13;;;2.99;82.42
28510;BME280;15723;55.684;37.928;2023-01-01T04:30:18;99337.13;;;3.09;82.29
28510;BME280;15723;55.684;37.928;2023-01-01T04:32:44;99342.69;;;3.25;81.86
28510;BME280;15723;55.684;37.928;2023-01-01T04:35:12;99346.50;;;3.40;81.24
28510;BME280;15723;55.684;37.928;2023-01-01T04:37:43;99338.59;;;3.17;81.63
28510;BME280;15723;55.684;37.928;2023-01-01T04:40:11;99342.16;;;3.37;82.12
28510;BME280;15723;55.684;37.928;2023-01-01T04:42:38;99324.38;;;3.35;82.05
28510;BME280;15723;55.684;37.928;2023-01-01T04:45:05;99328.13;;;3.31;82.21
28510;BME280;15723;55.684;37.928;2023-01-01T04:47:31;99319.69;;;3.40;82.21
28510;BME280;15723;55.684;37.928;2023-01-01T04:49:58;99306.19;;;3.41;82.55
28510;BME280;15723;55.684;37.928;2023-01-01T04:52:24;99305.66;;;3.33;82.02
28510;BME280;15723;55.684;37.928;2023-01-01T04:54:50;99314.03;;;3.26;82.46
28510;BME280;15723;55.684;37.928;2023-01-01T04:57:16;99321.28;;;3.44;82.26
28510;BME280;15723;55.684;37.928;2023-01-01T04:59:42;99319.00;;;3.14;82.51
28510;BME280;15723;55.684;37.928;2023-01-01T05:02:09;99313.66;;;3.14;83.75
28510;BME280;15723;55.684;37.928;2023-01-01T05:04:35;99311.88;;;3.34;83.10
28510;BME280;15723;55.684;37.928;2023-01-01T05:07:01;99302.94;;;3.35;83.01
28510;BME280;15723;55.684;37.928;2023-01-01T05:09:27;99296.56;;;3.37;83.54
28510;BME280;15723;55.684;37.928;2023-01-01T05:11:54;99318.88;;;3.18;83.64
28510;BME280;15723;55.684;37.928;2023-01-01T05:14:20;99301.56;;;3.45;83.14
28510;BME280;15723;55.684;37.928;2023-01-01T05:16:47;99296.63;;;3.36;82.44
28510;BME280;15723;55.684;37.928;2023-01-01T05:19:13;99306.59;;;3.53;82.84
28510;BME280;15723;55.684;37.928;2023-01-01T05:21:40;99296.66;;;3.34;82.45
28510;BME280;15723;55.684;37.928;2023-01-01T05:24:08;99288.59;;;3.55;82.16
28510;BME280;15723;55.684;37.928;2023-01-01T05:26:41;99294.59;;;3.41;83.10
28510;BME280;15723;55.684;37.928;2023-01-01T05:29:09;99296.63;;;3.16;83.05
28510;BME280;15723;55.684;37.928;2023-01-01T05:31:35;99289.69;;;3.51;82.72
28510;BME280;15723;55.684;37.928;2023-01-01T05:34:03;99298.47;;;3.34;82.57
28510;BME280;15723;55.684;37.928;2023-01-01T05:36:33;99313.84;;;3.51;82.70
28510;BME280;15723;55.684;37.928;2023-01-01T05:39:07;99316.25;;;3.16;83.00
28510;BME280;15723;55.684;37.928;2023-01-01T05:41:53;99307.88;;;3.24;84.16
28510;BME280;15723;55.684;37.928;2023-01-01T05:44:19;99301.91;;;3.37;83.80
28510;BME280;15723;55.684;37.928;2023-01-01T05:46:45;99290.09;;;3.41;83.67
28510;BME280;15723;55.684;37.928;2023-01-01T05:49:11;99299.69;;;3.47;83.20
28510;BME280;15723;55.684;37.928;2023-01-01T05:51:38;99297.56;;;3.35;83.18
28510;BME280;15723;55.684;37.928;2023-01-01T05:54:04;99297.81;;;3.29;83.82
28510;BME280;15723;55.684;37.928;2023-01-01T05:56:30;99288.16;;;3.25;83.98
28510;BME280;15723;55.684;37.928;2023-01-01T05:58:57;99291.72;;;3.45;83.33
28510;BME280;15723;55.684;37.928;2023-01-01T06:01:41;99275.47;;;3.49;83.59
28510;BME280;15723;55.684;37.928;2023-01-01T06:04:07;99281.19;;;3.60;82.88
28510;BME280;15723;55.684;37.928;2023-01-01T06:06:34;99273.78;;;3.46;83.05
28510;BME280;15723;55.684;37.928;2023-01-01T06:09:02;99279.81;;;3.51;82.93
28510;BME280;15723;55.684;37.928;2023-01-01T06:11:30;99273.06;;;3.61;83.05
28510;BME280;15723;55.684;37.928;2023-01-01T06:13:58;99267.00;;;3.58;82.44
28510;BME280;15723;55.684;37.928;2023-01-01T06:16:26;99276.25;;;3.51;82.97
28510;BME280;15723;55.684;37.928;2023-01-01T06:18:53;99257.56;;;3.68;82.66
28510;BME280;15723;55.684;37.928;2023-01-01T06:21:23;99250.94;;;3.37;82.93
28510;BME280;15723;55.684;37.928;2023-01-01T06:23:49;99255.88;;;3.47;82.64
28510;BME280;15723;55.684;37.928;2023-01-01T06:26:21;99257.44;;;3.32;82.81
28510;BME280;15723;55.684;37.928;2023-01-01T06:28:49;99247.53;;;3.53;83.32
28510;BME280;15723;55.684;37.928;2023-01-01T06:31:18;99244.28;;;3.46;82.85
28510;BME280;15723;55.684;37.928;2023-01-01T06:34:03;99239.78;;;3.65;83.18
28510;BME280;15723;55.684;37.928;2023-01-01T06:36:29;99233.13;;;3.55;83.02
28510;BME280;15723;55.684;37.928;2023-01-01T06:38:56;99231.16;;;3.59;82.38
28510;BME280;15723;55.684;37.928;2023-01-01T06:41:41;99236.44;;;3.60;82.85
28510;BME280;15723;55.684;37.928;2023-01-01T06:44:07;99236.81;;;3.53;82.62
28510;BME280;15723;55.684;37.928;2023-01-01T06:46:34;99234.13;;;3.71;82.72
28510;BME280;15723;55.684;37.928;2023-01-01T06:49:06;99237.31;;;3.61;82.72
28510;BME280;15723;55.684;37.928;2023-01-01T06:51:39;99219.34;;;3.63;82.95
28510;BME280;15723;55.684;37.928;2023-01-01T06:54:06;99222.75;;;3.66;83.26
28510;BME280;15723;55.684;37.928;2023-01-01T06:56:52;99217.44;;;3.65;82.58
28510;BME280;15723;55.684;37.928;2023-01-01T06:59:18;99213.34;;;3.76;82.64
28510;BME280;15723;55.684;37.928;2023-01-01T07:01:44;99203.38;;;3.79;82.42
28510;BME280;15723;55.684;37.928;2023-01-01T07:04:12;99191.56;;;3.64;83.02
28510;BME280;15723;55.684;37.928;2023-01-01T07:06:39;99177.34;;;3.62;83.49
28510;BME280;15723;55.684;37.928;2023-01-01T07:09:07;99177.94;;;3.50;83.63
28510;BME280;15723;55.684;37.928;2023-01-01T07:11:33;99180.44;;;3.71;83.64
28510;BME280;15723;55.684;37.928;2023-01-01T07:14:01;99174.66;;;3.81;82.50
28510;BME280;15723;55.684;37.928;2023-01-01T07:16:27;99173.41;;;3.69;82.56
28510;BME280;15723;55.684;37.928;2023-01-01T07:18:54;99162.97;;;3.82;82.36
28510;BME280;15723;55.684;37.928;2023-01-01T07:23:51;99169.00;;;3.49;83.12
28510;BME280;15723;55.684;37.928;2023-01-01T07:26:17;99178.44;;;3.76;82.78
28510;BME280;15723;55.684;37.928;2023-01-01T07:29:02;99178.63;;;3.91;82.15
28510;BME280;15723;55.684;37.928;2023-01-01T07:31:28;99166.59;;;3.81;82.28
28510;BME280;15723;55.684;37.928;2023-01-01T07:33:55;99161.31;;;3.79;82.04
28510;BME280;15723;55.684;37.928;2023-01-01T07:36:21;99167.25;;;3.67;82.38
28510;BME280;15723;55.684;37.928;2023-01-01T07:38:47;99161.47;;;3.76;81.58
28510;BME280;15723;55.684;37.928;2023-01-01T07:41:13;99173.09;;;3.94;82.64
28510;BME280;15723;55.684;37.928;2023-01-01T07:43:39;99170.06;;;3.83;82.52
28510;BME280;15723;55.684;37.928;2023-01-01T07:46:05;99163.00;;;3.99;81.95
28510;BME280;15723;55.684;37.928;2023-01-01T07:48:31;99163.63;;;3.87;82.56
28510;BME280;15723;55.684;37.928;2023-01-01T07:50:58;99169.31;;;3.98;81.76
28510;BME280;15723;55.684;37.928;2023-01-01T07:53:24;99169.47;;;3.95;81.71
28510;BME280;15723;55.684;37.928;2023-01-01T07:55:50;99171.78;;;4.02;81.91
28510;BME280;15723;55.684;37.928;2023-01-01T07:58:17;99165.44;;;3.86;81.98
28510;BME280;15723;55.684;37.928;2023-01-01T08:00:47;99165.41;;;4.22;81.64
28510;BME280;15723;55.684;37.928;2023-01-01T08:03:14;99156.38;;;4.06;81.46
28510;BME280;15723;55.684;37.928;2023-01-01T08:05:41;99163.84;;;4.18;81.83
28510;BME280;15723;55.684;37.928;2023-01-01T08:08:08;99149.81;;;4.48;81.22
28510;BME280;15723;55.684;37.928;2023-01-01T08:10:35;99154.69;;;4.22;81.44
28510;BME280;15723;55.684;37.928;2023-01-01T08:13:04;99140.69;;;4.16;82.34
28510;BME280;15723;55.684;37.928;2023-01-01T08:15:31;99139.09;;;4.12;82.54
28510;BME280;15723;55.684;37.928;2023-01-01T08:18:02;99138.88;;;4.16;82.97
28510;BME280;15723;55.684;37.928;2023-01-01T08:20:50;99135.56;;;4.28;82.63
28510;BME280;15723;55.684;37.928;2023-01-01T08:23:16;99129.31;;;4.28;82.97
28510;BME280;15723;55.684;37.928;2023-01-01T08:25:43;99128.28;;;4.30;82.52
28510;BME280;15723;55.684;37.928;2023-01-01T08:28:09;99118.31;;;4.32;82.13
28510;BME280;15723;55.684;37.928;2023-01-01T08:30:35;99124.66;;;4.14;83.17
28510;BME280;15723;55.684;37.928;2023-01-01T08:33:01;99126.06;;;4.38;82.30
28510;BME280;15723;55.684;37.928;2023-01-01T08:35:27;99131.06;;;4.29;82.56
28510;BME280;15723;55.684;37.928;2023-01-01T08:37:54;99121.66;;;4.37;82.47
28510;BME280;15723;55.684;37.928;2023-01-01T08:40:20;99134.59;;;4.12;83.04
28510;BME280;15723;55.684;37.928;2023-01-01T08:42:46;99133.81;;;4.45;83.04
28510;BME280;15723;55.684;37.928;2023-01-01T08:45:12;99131.50;;;4.02;82.55
28510;BME280;15723;55.684;37.928;2023-01-01T08:47:57;99118.41;;;4.14;83.19
28510;BME280;15723;55.684;37.928;2023-01-01T08:50:24;99121.81;;;4.34;83.09
28510;BME280;15723;55.684;37.928;2023-01-01T08:52:51;99110.38;;;4.48;83.22
28510;BME280;15723;55.684;37.928;2023-01-01T08:55:17;99101.56;;;4.45;83.47
28510;BME280;15723;55.684;37.928;2023-01-01T08:57:43;99108.53;;;4.31;83.75
28510;BME280;15723;55.684;37.928;2023-01-01T09:00:10;99096.81;;;4.67;82.65
28510;BME280;15723;55.684;37.928;2023-01-01T09:02:38;99086.84;;;4.69;82.78
28510;BME280;15723;55.684;37.928;2023-01-01T09:05:04;99094.31;;;4.47;82.52
28510;BME280;15723;55.684;37.928;2023-01-01T09:07:31;99089.84;;;4.46;82.75
28510;BME280;15723;55.684;37.928;2023-01-01T09:09:57;99091.22;;;4.37;82.85
28510;BME280;15723;55.684;37.928;2023-01-01T09:12:23;99095.56;;;4.57;83.07
28510;BME280;15723;55.684;37.928;2023-01-01T09:14:49;99092.53;;;4.63;82.61
28510;BME280;15723;55.684;37.928;2023-01-01T09:17:16;99085.94;;;4.86;82.47
28510;BME280;15723;55.684;37.928;2023-01-01T09:19:42;99084.47;;;4.63;81.63
28510;BME280;15723;55.684;37.928;2023-01-01T09:22:27;99083.41;;;4.50;82.94
28510;BME280;15723;55.684;37.928;2023-01-01T09:24:53;99085.56;;;4.76;82.66
28510;BME280;15723;55.684;37.928;2023-01-01T09:27:19;99081.13;;;4.75;82.49
28510;BME280;15723;55.684;37.928;2023-01-01T09:29:45;99072.88;;;4.62;82.24
28510;BME280;15723;55.684;37.928;2023-01-01T09:32:11;99071.56;;;4.69;82.90
28510;BME280;15723;55.684;37.928;2023-01-01T09:34:37;99064.44;;;4.53;83.02
28510;BME280;15723;55.684;37.928;2023-01-01T09:37:04;99061.28;;;4.78;82.74
28510;BME280;15723;55.684;37.928;2023-01-01T09:39:30;99053.47;;;4.73;82.99
28510;BME280;15723;55.684;37.928;2023-01-01T09:45:08;99048.00;;;4.75;82.33
28510;BME280;15723;55.684;37.928;2023-01-01T09:47:44;99050.75;;;4.90;81.98
28510;BME280;15723;55.684;37.928;2023-01-01T09:52:55;99034.56;;;4.75;82.42
28510;BME280;15723;55.684;37.928;2023-01-01T09:55:33;99021.56;;;4.83;82.79
28510;BME280;15723;55.684;37.928;2023-01-01T09:58:03;99019.63;;;4.69;83.15
28510;BME280;15723;55.684;37.928;2023-01-01T10:00:32;99014.22;;;4.86;82.51
28510;BME280;15723;55.684;37.928;2023-01-01T10:10:58;99017.88;;;5.01;82.00
28510;BME280;15723;55.684;37.928;2023-01-01T10:13:40;99018.50;;;5.22;81.72
28510;BME280;15723;55.684;37.928;2023-01-01T10:18:49;99018.56;;;4.89;82.50
28510;BME280;15723;55.684;37.928;2023-01-01T10:21:30;99014.13;;;5.19;81.82
28510;BME280;15723;55.684;37.928;2023-01-01T10:24:01;99016.75;;;5.21;81.71
28510;BME280;15723;55.684;37.928;2023-01-01T10:26:30;99002.66;;;5.16;81.95
28510;BME280;15723;55.684;37.928;2023-01-01T10:31:34;98998.88;;;4.88;82.39
28510;BME280;15723;55.684;37.928;2023-01-01T10:34:22;98983.78;;;5.01;83.16
28510;BME280;15723;55.684;37.928;2023-01-01T10:36:56;98976.22;;;5.08;82.88
28510;BME280;15723;55.684;37.928;2023-01-01T10:39:23;98980.56;;;5.11;83.04
28510;BME280;15723;55.684;37.928;2023-01-01T10:41:50;98979.78;;;5.09;81.85
28510;BME280;15723;55.684;37.928;2023-01-01T10:44:31;98975.09;;;5.12;82.03
28510;BME280;15723;55.684;37.928;2023-01-01T10:47:04;98967.38;;;5.22;82.22
28510;BME280;15723;55.684;37.928;2023-01-01T10:50:01;98952.53;;;5.30;81.89
28510;BME280;15723;55.684;37.928;2023-01-01T10:52:38;98947.41;;;5.26;81.75
28510;BME280;15723;55.684;37.928;2023-01-01T10:55:20;98942.34;;;5.20;81.86
28510;BME280;15723;55.684;37.928;2023-01-01T10:57:48;98948.59;;;5.36;81.77
28510;BME280;15723;55.684;37.928;2023-01-01T11:00:26;98931.03;;;4.99;82.02
28510;BME280;15723;55.684;37.928;2023-01-01T11:03:31;98935.69;;;5.11;82.52
28510;BME280;15723;55.684;37.928;2023-01-01T11:06:19;98942.47;;;4.87;82.54
28510;BME280;15723;55.684;37.928;2023-01-01T11:08:51;98945.25;;;5.01;82.35
28510;BME280;15723;55.684;37.928;2023-01-01T11:11:21;98945.03;;;5.20;82.49
28510;BME280;15723;55.684;37.928;2023-01-01T11:13:52;98934.88;;;5.41;81.17
28510;BME280;15723;55.684;37.928;2023-01-01T11:16:20;98923.63;;;5.18;82.50
28510;BME280;15723;55.684;37.928;2023-01-01T11:18:46;98930.34;;;5.41;81.74
28510;BME280;15723;55.684;37.928;2023-01-01T11:21:20;98931.84;;;5.31;81.62
28510;BME280;15723;55.684;37.928;2023-01-01T11:23:48;98928.56;;;5.26;81.60
28510;BME280;15723;55.684;37.928;2023-01-01T11:26:18;98924.84;;;5.28;82.30
28510;BME280;15723;55.684;37.928;2023-01-01T11:29:18;98920.78;;;5.21;82.43
28510;BME280;15723;55.684;37.928;2023-01-01T11:31:47;98928.47;;;5.27;82.54
28510;BME280;15723;55.684;37.928;2023-01-01T11:37:29;98914.53;;;5.21;82.01
28510;BME280;15723;55.684;37.928;2023-01-01T11:40:02;98913.94;;;5.46;81.17
28510;BME280;15723;55.684;37.928;2023-01-01T11:42:32;98907.56;;;5.62;81.03
28510;BME280;15723;55.684;37.928;2023-01-01T11:45:09;98906.81;;;5.45;81.55
28510;BME280;15723;55.684;37.928;2023-01-01T11:47:42;98900.72;;;5.27;81.76
28510;BME280;15723;55.684;37.928;2023-01-01T11:50:54;98896.88;;;5.31;81.40
28510;BME280;15723;55.684;37.928;2023-01-01T11:56:06;98893.31;;;5.30;81.26
28510;BME280;15723;55.684;37.928;2023-01-01T11:58:50;98886.22;;;5.29;82.01
28510;BME280;15723;55.684;37.928;2023-01-01T12:01:36;98868.56;;;5.54;81.31
28510;BME280;15723;55.684;37.928;2023-01-01T12:07:16;98873.47;;;5.47;81.10
28510;BME280;15723;55.684;37.928;2023-01-01T12:10:08;98876.06;;;5.49;81.75
28510;BME280;15723;55.684;37.928;2023-01-01T12:12:42;98876.13;;;5.77;81.55
28510;BME280;15723;55.684;37.928;2023-01-01T12:15:19;98870.22;;;5.56;81.37
28510;BME280;15723;55.684;37.928;2023-01-01T12:18:19;98864.59;;;5.61;80.81
28510;BME280;15723;55.684;37.928;2023-01-01T12:21:02;98865.31;;;5.49;81.56
28510;BME280;15723;55.684;37.928;2023-01-01T12:23:31;98876.91;;;5.65;81.46
28510;BME280;15723;55.684;37.928;2023-01-01T12:40:45;98850.66;;;5.39;82.22
28510;BME280;15723;55.684;37.928;2023-01-01T12:52:25;98846.22;;;5.68;81.89
28510;BME280;15723;55.684;37.928;2023-01-01T12:57:54;98853.06;;;5.73;81.03
28510;BME280;15723;55.684;37.928;2023-01-01T13:00:22;98847.78;;;5.86;81.13
28510;BME280;15723;55.684;37.928;2023-01-01T13:03:01;98849.09;;;5.64;81.74
28510;BME280;15723;55.684;37.928;2023-01-01T13:05:35;98849.03;;;5.80;81.56
28510;BME280;15723;55.684;37.928;2023-01-01T13:08:03;98841.81;;;5.81;81.42
28510;BME280;15723;55.684;37.928;2023-01-01T13:12:59;98846.63;;;5.76;81.45
28510;BME280;15723;55.684;37.928;2023-01-01T13:20:43;98833.34;;;5.87;81.69
28510;BME280;15723;55.684;37.928;2023-01-01T13:40:02;98815.22;;;6.05;81.79
28510;BME280;15723;55.684;37.928;2023-01-01T13:45:42;98807.19;;;5.75;82.13
28510;BME280;15723;55.684;37.928;2023-01-01T13:51:19;98783.34;;;5.83;82.04
28510;BME280;15723;55.684;37.928;2023-01-01T13:57:02;98777.09;;;5.82;82.67
28510;BME280;15723;55.684;37.928;2023-01-01T14:12:43;98782.78;;;6.06;82.21
28510;BME280;15723;55.684;37.928;2023-01-01T14:15:32;98783.28;;;5.99;81.89
28510;BME280;15723;55.684;37.928;2023-01-01T14:18:10;98785.25;;;5.81;82.21
28510;BME280;15723;55.684;37.928;2023-01-01T14:20:51;98787.03;;;5.96;81.70
28510;BME280;15723;55.684;37.928;2023-01-01T14:23:26;98785.19;;;6.11;81.72
28510;BME280;15723;55.684;37.928;2023-01-01T14:25:55;98787.41;;;5.90;82.12
28510;BME280;15723;55.684;37.928;2023-01-01T14:28:27;98798.69;;;5.97;81.98
28510;BME280;15723;55.684;37.928;2023-01-01T14:31:15;98783.47;;;5.95;81.82
28510;BME280;15723;55.684;37.928;2023-01-01T14:33:43;98778.22;;;6.21;81.29
28510;BME280;15723;55.684;37.928;2023-01-01T14:36:22;98774.97;;;6.16;81.62
28510;BME280;15723;55.684;37.928;2023-01-01T14:38:51;98761.41;;;5.89;83.19
28510;BME280;15723;55.684;37.928;2023-01-01T14:41:34;98753.72;;;6.11;82.32
28510;BME280;15723;55.684;37.928;2023-01-01T14:44:09;98750.56;;;6.05;82.41
28510;BME280;15723;55.684;37.928;2023-01-01T14:46:41;98747.78;;;6.06;83.10
28510;BME280;15723;55.684;37.928;2023-01-01T14:49:14;98744.00;;;5.94;83.22
28510;BME280;15723;55.684;37.928;2023-01-01T14:51:44;98737.84;;;6.07;82.83
28510;BME280;15723;55.684;37.928;2023-01-01T14:54:18;98730.34;;;6.12;82.66
28510;BME280;15723;55.684;37.928;2023-01-01T14:57:15;98736.13;;;6.06;82.26
28510;BME280;15723;55.684;37.928;2023-01-01T14:59:49;98733.13;;;6.10;82.79
28510;BME280;15723;55.684;37.928;2023-01-01T15:02:29;98721.53;;;6.22;82.74
28510;BME280;15723;55.684;37.928;2023-01-01T15:05:08;98716.16;;;6.22;82.16
28510;BME280;15723;55.684;37.928;2023-01-01T15:07:40;98711.28;;;6.15;82.83
28510;BME280;15723;55.684;37.928;2023-01-01T15:10:11;98713.50;;;6.08;82.69
28510;BME280;15723;55.684;37.928;2023-01-01T15:12:38;98711.38;;;6.13;82.99
28510;BME280;15723;55.684;37.928;2023-01-01T15:15:33;98721.25;;;6.27;81.84
28510;BME280;15723;55.684;37.928;2023-01-01T15:17:59;98723.91;;;6.00;83.17
28510;BME280;15723;55.684;37.928;2023-01-01T15:20:26;98723.38;;;6.22;82.75
28510;BME280;15723;55.684;37.928;2023-01-01T15:22:53;98716.25;;;6.35;82.43
28510;BME280;15723;55.684;37.928;2023-01-01T15:25:20;98717.47;;;6.30;82.78
28510;BME280;15723;55.684;37.928;2023-01-01T15:27:49;98719.78;;;5.94;83.59
28510;BME280;15723;55.684;37.928;2023-01-01T15:30:32;98709.91;;;6.22;82.43
28510;BME280;15723;55.684;37.928;2023-01-01T15:33:08;98703.75;;;6.20;82.64
28510;BME280;15723;55.684;37.928;2023-01-01T15:35:57;98709.53;;;6.14;83.27
28510;BME280;15723;55.684;37.928;2023-01-01T15:38:31;98694.25;;;6.41;82.04
28510;BME280;15723;55.684;37.928;2023-01-01T15:41:25;98702.59;;;6.24;82.46
28510;BME280;15723;55.684;37.928;2023-01-01T15:44:14;98697.00;;;6.27;82.40